Cuttingsville, Vermont
Current Conditions -  °F | °C
As of 2:54 PM on Sunday 25 Jan 2015 (Local Time) from KVSF Reporting Station
Few Clouds Few Clouds  
Wind Chill: 15°   Ceiling: Unl
Heat Index: 24°   Visibility: 10mi
Dew Point:   Wind: 8mph
Humidity: 42%   Direction: 290°WNW
Pressure: 29.75"   Gusts: 21mph
Location:  43.49°N, 72.88°W
Report Text: KVSF 251954Z AUTO 29007G18KT 240V330 10SM FEW047 M04/M16 A2975 RMK AO2 SLP082 T10441156 TSNO
Loading
Personal Weather Stations






























Interactive Weather Map New forecast layout! Learn more

10-Day Weather Forecast

Advertisements
Track Severe Weather on mobile